Time;durP1;ratioP1;P1;durP2;ratioP2;P2;SDS_P1;SDS_P2;PMS_P1;PMS_P2;Temp;Humidity;BMP_temperature;BMP_pressure;BME280_temperature;BME280_humidity;BME280_pressure;Samples;Min_cycle;Max_cycle;Signal;HPM_P1;HPM_P2
2023/10/15 00:00:18;;;;;;;11.77;6.07;;;;;;;14.43;56.60;99456.81;6303185;22;20007;-82
2023/10/15 00:02:46;;;;;;;22.88;9.68;;;;;;;14.37;56.78;99433.16;6302891;22;20007;-80
2023/10/15 00:05:15;;;;;;;15.20;6.90;;;;;;;14.24;56.29;99411.50;6302989;22;20354;-80
2023/10/15 00:07:41;;;;;;;16.00;7.35;;;;;;;14.38;56.51;99429.59;6303119;22;20023;-80
2023/10/15 00:10:10;;;;;;;17.08;5.07;;;;;;;14.14;57.16;99415.38;6303796;22;20000;-81
2023/10/15 00:12:35;;;;;;;17.70;5.80;;;;;;;13.79;57.68;99393.53;6303287;22;20004;-80
2023/10/15 00:15:00;;;;;;;13.63;5.50;;;;;;;13.93;58.24;99412.53;6303316;22;20022;-81
2023/10/15 00:17:27;;;;;;;;;;;;;;;14.14;58.39;99461.31;6302260;22;20003;-81
2023/10/15 00:19:53;;;;;;;16.90;5.57;;;;;;;13.67;57.69;99391.28;6274839;22;19960;-80
2023/10/15 00:22:19;;;;;;;10.95;5.05;;;;;;;14.18;58.16;99450.59;6303564;22;20365;-81
2023/10/15 00:24:44;;;;;;;6.88;4.10;;;;;;;13.73;57.52;99377.84;6303632;22;20061;-81
2023/10/15 00:27:10;;;;;;;16.15;4.82;;;;;;;13.42;57.46;99332.03;6302599;22;20418;-82
2023/10/15 00:29:35;;;;;;;;;;;;;;;14.06;58.24;99442.16;6304576;22;20011;-81
2023/10/15 00:32:03;;;;;;;7.63;4.10;;;;;;;13.43;58.10;99332.88;6302390;22;19980;-82
2023/10/15 00:34:30;;;;;;;8.32;4.43;;;;;;;13.64;58.09;99349.00;6303044;22;20018;-82
2023/10/15 00:36:55;;;;;;;8.93;3.60;;;;;;;13.95;57.75;99396.56;6302144;22;20070;-82
2023/10/15 00:39:21;;;;;;;7.57;4.18;;;;;;;13.85;57.46;99396.00;6303346;22;20038;-81
2023/10/15 00:41:50;;;;;;;;;;;;;;;14.15;57.40;99441.00;6303784;22;20006;-82
2023/10/15 00:44:16;;;;;;;9.23;4.38;;;;;;;13.52;57.83;99348.50;6303428;22;19911;-82
2023/10/15 00:46:45;;;;;;;19.10;4.90;;;;;;;13.41;57.31;99327.63;6276625;22;20315;-80
2023/10/15 00:49:14;;;;;;;9.52;4.57;;;;;;;13.83;57.87;99389.03;6302591;22;20078;-82
2023/10/15 00:51:44;;;;;;;21.23;6.00;;;;;;;13.39;57.29;99323.28;6305475;22;20003;-81
2023/10/15 00:54:17;;;;;;;15.15;6.45;;;;;;;13.35;56.86;99322.53;6304938;22;20042;-81
2023/10/15 00:56:47;;;;;;;18.50;5.57;;;;;;;13.83;57.04;99420.84;6305611;22;20015;-82
2023/10/15 01:01:53;;;;;;;14.38;6.00;;;;;;;13.27;57.20;99329.84;6305082;22;20003;-82
2023/10/15 01:04:24;;;;;;;12.55;6.10;;;;;;;13.42;57.33;99358.53;6280352;22;20042;-81
2023/10/15 01:06:50;;;;;;;21.73;6.88;;;;;;;13.70;57.20;99385.91;6305817;22;20053;-83
2023/10/15 01:09:20;;;;;;;17.25;6.68;;;;;;;13.63;56.67;99387.03;6277634;22;20391;-81
2023/10/15 01:11:56;;;;;;;17.65;7.03;;;;;;;13.39;56.92;99366.56;6305902;22;20011;-81
2023/10/15 01:16:55;;;;;;;15.20;5.65;;;;;;;13.52;58.08;99371.47;6305614;22;20083;-80
2023/10/15 01:19:31;;;;;;;15.43;6.30;;;;;;;13.33;58.36;99364.13;6305053;22;19999;-81
2023/10/15 01:21:58;;;;;;;13.45;6.75;;;;;;;13.37;57.62;99354.28;6305871;22;20033;-80
2023/10/15 01:24:27;;;;;;;20.48;6.63;;;;;;;13.41;57.39;99347.97;6305262;22;20082;-81
2023/10/15 01:27:22;;;;;;;11.23;6.50;;;;;;;13.20;57.54;99320.34;6305600;22;20006;-81
2023/10/15 01:29:42;;;;;;;13.75;6.63;;;;;;;13.25;57.83;99358.13;6304419;22;20404;-81
2023/10/15 01:32:10;;;;;;;13.07;7.07;;;;;;;13.29;58.07;99357.13;6277817;22;20076;-81
2023/10/15 01:34:37;;;;;;;11.70;7.57;;;;;;;13.69;57.75;99424.81;6277717;22;20019;-81
2023/10/15 01:37:24;;;;;;;14.27;7.60;;;;;;;12.99;58.53;99317.47;6278238;22;20389;-81
2023/10/15 01:42:40;;;;;;;16.65;7.25;;;;;;;12.89;59.80;99337.19;6210099;23;20005;-81
2023/10/15 01:50:33;;;;;;;16.55;7.75;;;;;;;12.91;60.85;99293.00;6210507;23;20517;-81
2023/10/15 01:53:01;;;;;;;19.75;7.60;;;;;;;13.28;61.64;99368.63;6210445;23;20013;-82
2023/10/15 01:55:29;;;;;;;14.73;6.63;;;;;;;12.95;61.80;99302.56;6210980;23;20016;-81
2023/10/15 01:57:56;;;;;;;22.60;6.55;;;;;;;13.23;61.60;99358.19;6185425;23;20325;-81
2023/10/15 02:00:37;;;;;;;22.65;7.82;;;;;;;13.28;61.32;99367.78;6210455;23;20384;-81
2023/10/15 02:03:03;;;;;;;16.23;7.53;;;;;;;13.06;60.91;99349.91;6210314;23;20390;-81
2023/10/15 02:05:41;;;;;;;;;;;;;;;13.42;59.71;99413.28;6211453;23;20051;-82
2023/10/15 02:08:12;;;;;;;8.55;5.80;;;;;;;12.51;59.69;99324.19;6210707;23;19904;-81
2023/10/15 02:10:39;;;;;;;21.13;7.32;;;;;;;12.74;59.68;99393.22;6210641;23;20074;-81
2023/10/15 02:13:08;;;;;;;13.52;6.65;;;;;;;12.29;60.06;99334.47;6210527;23;20083;-82
2023/10/15 02:15:41;;;;;;;10.20;6.18;;;;;;;12.56;59.95;99387.53;6210606;23;20144;-82
2023/10/15 02:18:08;;;;;;;14.48;7.97;;;;;;;12.45;60.56;99377.25;6211295;23;20087;-82
2023/10/15 02:23:19;;;;;;;13.38;7.18;;;;;;;12.63;61.55;99412.91;6305119;22;20957;-81
2023/10/15 02:25:46;;;;;;;14.10;6.00;;;;;;;12.47;61.13;99375.44;6304650;22;20334;-81
2023/10/15 02:28:31;;;;;;;12.32;6.45;;;;;;;12.44;61.36;99358.78;6304739;22;20007;-80
2023/10/15 02:31:06;;;;;;;11.57;6.50;;;;;;;12.40;61.56;99336.81;6305620;22;20003;-80
2023/10/15 02:33:32;;;;;;;8.93;5.07;;;;;;;12.79;61.52;99415.13;6305208;22;20011;-80
2023/10/15 02:35:59;;;;;;;;;;;;;;;12.93;61.54;99426.19;6305245;22;20438;-81
2023/10/15 02:38:34;;;;;;;15.40;6.20;;;;;;;12.49;61.39;99344.50;6305209;22;19907;-80
2023/10/15 02:41:05;;;;;;;13.65;6.90;;;;;;;12.59;61.63;99375.97;6298701;22;20011;-80
2023/10/15 02:43:31;;;;;;;15.68;7.13;;;;;;;12.64;61.23;99367.00;6278069;22;20030;-80
2023/10/15 02:46:01;;;;;;;11.48;7.35;;;;;;;12.38;62.09;99325.44;6304611;22;20000;-81
2023/10/15 02:48:31;;;;;;;11.48;6.97;;;;;;;12.65;61.70;99374.06;6305268;22;20003;-81
2023/10/15 02:51:00;;;;;;;15.30;7.57;;;;;;;12.36;61.64;99324.63;6305023;22;20003;-81
2023/10/15 02:53:39;;;;;;;13.55;5.93;;;;;;;12.40;62.07;99314.81;6304819;22;20508;-81
2023/10/15 02:56:10;;;;;;;12.98;6.85;;;;;;;12.24;62.38;99332.88;6304688;22;20006;-82
2023/10/15 02:58:39;;;;;;;17.77;6.82;;;;;;;12.22;61.77;99305.59;6305116;22;20078;-83
2023/10/15 03:01:18;;;;;;;16.98;9.15;;;;;;;12.25;62.14;99342.53;6304092;22;20010;-84
2023/10/15 03:03:49;;;;;;;13.45;7.30;;;;;;;12.15;62.41;99334.84;6304919;22;20010;-82
2023/10/15 03:06:19;;;;;;;15.55;7.47;;;;;;;12.23;61.88;99333.78;6304371;22;20003;-82
2023/10/15 03:08:48;;;;;;;11.10;6.45;;;;;;;12.52;61.60;99407.06;6304315;22;20086;-81
2023/10/15 03:11:14;;;;;;;14.57;7.07;;;;;;;11.72;62.42;99285.75;6304747;22;20007;-82
2023/10/15 03:13:49;;;;;;;;;;;;;;;12.39;62.75;99406.53;6305056;22;20010;-81
2023/10/15 03:16:16;;;;;;;11.20;5.70;;;;;;;11.91;62.23;99309.94;6304627;22;19911;-82
2023/10/15 03:18:42;;;;;;;21.92;6.88;;;;;;;11.92;62.25;99298.47;6277488;22;20066;-82
2023/10/15 03:21:14;;;;;;;;;;;;;;;12.38;62.75;99396.84;6304767;22;20006;-82
2023/10/15 03:23:41;;;;;;;12.20;6.75;;;;;;;11.98;62.59;99308.88;6304533;22;19946;-82
2023/10/15 03:26:08;;;;;;;17.50;7.22;;;;;;;12.10;62.56;99331.47;6303797;22;20424;-81
2023/10/15 03:28:44;;;;;;;14.13;6.32;;;;;;;12.25;62.18;99348.72;6277256;22;20007;-82
2023/10/15 03:31:09;;;;;;;9.52;6.28;;;;;;;12.08;62.22;99311.25;6303572;22;20003;-83
2023/10/15 03:33:35;;;;;;;;;;;;;;;12.59;62.13;99391.88;6277696;22;20015;-82
2023/10/15 03:36:03;;;;;;;11.65;6.38;;;;;;;11.99;62.09;99307.97;6304533;22;20321;-82
2023/10/15 03:38:35;;;;;;;23.98;6.35;;;;;;;12.07;62.28;99322.78;6304336;22;20011;-82
2023/10/15 03:41:21;;;;;;;12.50;7.75;;;;;;;12.12;62.21;99328.78;6303386;22;20354;-83
2023/10/15 03:43:48;;;;;;;14.88;5.25;;;;;;;12.09;62.06;99342.09;6301309;22;19999;-82
2023/10/15 03:46:19;;;;;;;15.77;6.28;;;;;;;11.95;61.90;99334.53;6299930;22;20007;-84
2023/10/15 03:48:47;;;;;;;20.30;6.60;;;;;;;11.84;61.47;99313.63;6304034;22;20003;-81
2023/10/15 03:51:20;;;;;;;13.48;6.53;;;;;;;11.54;61.90;99283.56;6303582;22;20011;-81
2023/10/15 03:53:49;;;;;;;9.77;5.47;;;;;;;11.88;61.96;99336.44;6303918;22;20034;-82
2023/10/15 03:56:17;;;;;;;11.10;5.63;;;;;;;11.62;61.95;99273.72;6303918;22;20106;-81
2023/10/15 03:58:44;;;;;;;10.65;6.65;;;;;;;11.50;62.46;99264.31;6277053;22;20141;-80
2023/10/15 04:01:20;;;;;;;11.95;6.70;;;;;;;11.61;62.50;99258.75;6303974;22;20052;-82
2023/10/15 04:03:49;;;;;;;16.30;5.78;;;;;;;11.51;62.98;99276.63;6303779;22;20003;-80
2023/10/15 04:06:16;;;;;;;12.85;5.28;;;;;;;11.69;63.17;99317.53;6303690;22;20004;-82
2023/10/15 04:11:42;;;;;;;13.50;5.85;;;;;;;11.96;63.23;99331.00;6303903;22;20026;-81
2023/10/15 04:14:21;;;;;;;11.00;6.22;;;;;;;11.81;63.32;99280.22;6303171;22;20345;-81
2023/10/15 04:16:47;;;;;;;13.80;5.80;;;;;;;11.68;63.95;99293.78;6304092;22;20042;-81
2023/10/15 04:19:17;;;;;;;;;;;;;;;12.23;64.22;99362.88;6304984;22;20389;-81
2023/10/15 04:21:43;;;;;;;15.68;5.53;;;;;;;11.87;63.63;99280.97;6304040;22;19907;-80
2023/10/15 04:24:09;;;;;;;24.30;6.95;;;;;;;11.89;63.74;99300.31;6304221;22;20042;-81
2023/10/15 04:26:42;;;;;;;19.27;6.45;;;;;;;11.89;64.22;99306.44;6278483;22;20342;-81
2023/10/15 04:29:17;;;;;;;17.08;6.60;;;;;;;11.65;64.68;99268.34;6306066;22;20075;-82
2023/10/15 04:34:29;;;;;;;8.82;5.25;;;;;;;11.86;63.71;99285.38;6305564;22;20303;-80
2023/10/15 04:37:01;;;;;;;16.58;5.47;;;;;;;11.88;63.35;99280.94;6305732;22;20090;-80
2023/10/15 04:39:28;;;;;;;7.82;5.97;;;;;;;11.88;64.17;99302.09;6305480;22;19999;-81
2023/10/15 04:41:55;;;;;;;14.52;8.48;;;;;;;12.05;65.09;99316.63;6305533;22;20133;-81
2023/10/15 04:44:28;;;;;;;19.05;7.53;;;;;;;11.72;65.89;99280.47;6305772;22;20007;-80
2023/10/15 04:46:55;;;;;;;10.52;6.05;;;;;;;11.79;66.85;99287.34;6305364;22;20017;-81
2023/10/15 04:49:22;;;;;;;8.18;4.70;;;;;;;11.70;67.55;99261.16;6305903;22;20029;-80
2023/10/15 04:51:48;;;;;;;18.10;6.70;;;;;;;11.96;67.41;99275.47;6305650;22;20086;-82
2023/10/15 04:54:14;;;;;;;;;;;;;;;12.31;68.01;99350.31;6306096;22;20042;-81
2023/10/15 04:56:39;;;;;;;14.15;6.25;;;;;;;12.50;67.81;99362.13;6305112;22;19933;-81
2023/10/15 04:59:05;;;;;;;;;;;;;;;12.47;68.84;99348.97;6306336;22;20007;-80
2023/10/15 05:01:33;;;;;;;;;;;;;;;12.45;69.20;99348.16;6305929;22;19907;-81
2023/10/15 05:04:01;;;;;;;10.80;6.65;;;;;;;12.06;68.51;99228.50;6305472;22;19918;-81
2023/10/15 05:06:27;;;;;;;14.80;6.78;;;;;;;12.40;67.82;99267.19;6304984;22;20003;-80
2023/10/15 05:08:53;;;;;;;;;;;;;;;12.99;67.61;99335.13;6306112;22;20034;-81
2023/10/15 05:11:21;;;;;;;8.30;5.78;;;;;;;12.74;67.21;99298.78;6304724;22;20245;-81
2023/10/15 05:13:48;;;;;;;17.20;5.75;;;;;;;12.71;66.37;99296.25;6305324;22;20015;-82
2023/10/15 05:16:14;;;;;;;15.73;6.40;;;;;;;12.69;65.60;99268.97;6304906;22;20488;-81
2023/10/15 05:18:40;;;;;;;12.27;7.10;;;;;;;12.94;65.74;99297.34;6304891;22;20011;-80
2023/10/15 05:21:05;;;;;;;;;;;;;;;13.34;65.62;99343.78;6306046;22;20003;-80
2023/10/15 05:23:31;;;;;;;15.07;5.75;;;;;;;12.99;65.64;99275.09;6304774;22;19942;-79
2023/10/15 05:25:56;;;;;;;15.40;6.88;;;;;;;13.19;65.24;99329.19;6305022;22;20003;-80
2023/10/15 05:28:22;;;;;;;10.60;5.82;;;;;;;13.12;65.11;99296.75;6305002;22;20021;-80
2023/10/15 05:30:49;;;;;;;15.15;6.18;;;;;;;13.15;64.27;99261.38;6304651;22;20023;-81
2023/10/15 05:33:16;;;;;;;16.73;6.53;;;;;;;13.34;65.38;99310.19;6304189;22;20007;-81
2023/10/15 05:35:48;;;;;;;11.63;6.03;;;;;;;13.45;65.28;99323.09;6305044;22;20457;-81
2023/10/15 05:38:13;;;;;;;7.82;6.00;;;;;;;13.48;65.73;99311.53;6303713;22;20003;-81
2023/10/15 05:40:39;;;;;;;;;;;;;;;13.87;65.14;99345.56;6305412;22;20030;-81
2023/10/15 05:43:07;;;;;;;14.15;7.15;;;;;;;13.44;65.38;99268.41;6304828;22;19993;-81
2023/10/15 05:45:33;;;;;;;17.13;7.57;;;;;;;13.82;64.61;99305.97;6304897;22;20060;-80
2023/10/15 05:47:58;;;;;;;;;;;;;;;14.31;64.49;99340.50;6305902;22;20003;-81
2023/10/15 05:50:24;;;;;;;17.77;6.47;;;;;;;14.06;64.52;99295.44;6304311;22;19907;-81
2023/10/15 05:52:50;;;;;;;;;;;;;;;14.69;64.15;99335.63;6305412;22;20385;-81
2023/10/15 05:55:17;;;;;;;14.82;5.97;;;;;;;14.62;63.11;99281.03;6304819;22;19907;-81
2023/10/15 05:57:43;;;;;;;9.35;5.68;;;;;;;15.19;61.99;99302.69;6305178;22;20010;-83
2023/10/15 06:00:18;;;;;;;6.72;4.50;;;;;;;14.90;61.70;99224.19;6304577;22;20011;-84
2023/10/15 06:02:47;;;;;;;16.15;5.75;;;;;;;15.01;60.78;99237.88;6273617;22;20094;-81
2023/10/15 06:05:16;;;;;;;10.02;5.80;;;;;;;15.61;60.90;99307.19;6302361;22;20011;-82
2023/10/15 06:07:43;;;;;;;7.82;4.85;;;;;;;15.21;60.19;99240.63;6304580;22;20010;-83
2023/10/15 06:10:09;;;;;;;10.18;5.38;;;;;;;15.58;59.06;99236.41;6304940;22;19999;-80
2023/10/15 06:12:35;;;;;;;8.70;5.00;;;;;;;15.72;58.38;99233.16;6304205;22;20057;-81
2023/10/15 06:15:01;;;;;;;9.38;5.68;;;;;;;16.29;58.48;99283.00;6304203;22;20046;-79
2023/10/15 06:17:26;;;;;;;9.98;5.40;;;;;;;16.57;57.37;99279.06;6304547;22;20028;-81
2023/10/15 06:19:52;;;;;;;;;;;;;;;17.22;57.23;99322.22;6304012;22;20011;-81
2023/10/15 06:22:18;;;;;;;7.85;4.65;;;;;;;17.05;56.60;99282.19;6304786;22;20227;-81
2023/10/15 06:24:46;;;;;;;;;;;;;;;17.06;56.93;99318.56;6304526;22;20011;-81
2023/10/15 06:27:15;;;;;;;13.52;4.20;;;;;;;16.85;56.78;99265.31;6304543;22;19930;-80
2023/10/15 06:29:41;;;;;;;15.60;4.97;;;;;;;17.48;57.12;99310.25;6304095;22;20082;-80
2023/10/15 06:32:06;;;;;;;8.40;4.70;;;;;;;17.42;55.15;99237.72;6302173;22;20053;-79
2023/10/15 06:34:32;;;;;;;9.10;5.07;;;;;;;17.73;54.47;99258.34;6303117;22;20034;-79
2023/10/15 06:36:58;;;;;;;12.57;5.65;;;;;;;17.86;55.16;99282.63;6304702;22;20007;-80
2023/10/15 06:39:24;;;;;;;8.32;4.28;;;;;;;17.95;54.43;99274.16;6304423;22;20046;-79
2023/10/15 06:41:49;;;;;;;13.98;6.03;;;;;;;18.01;54.36;99252.50;6304411;22;20430;-79
2023/10/15 06:44:16;;;;;;;7.32;5.72;;;;;;;18.45;52.94;99253.72;6308268;22;20003;-81
2023/10/15 06:46:41;;;;;;;9.25;4.55;;;;;;;18.67;52.44;99296.13;6309156;22;20007;-80
2023/10/15 06:49:10;;;;;;;8.65;4.93;;;;;;;18.70;53.22;99322.69;6309450;22;20007;-79
2023/10/15 06:51:35;;;;;;;6.70;4.15;;;;;;;18.26;53.29;99216.50;6312008;22;19999;-82
2023/10/15 06:54:01;;;;;;;8.75;3.70;;;;;;;18.87;52.50;99280.84;6315811;22;20009;-83
2023/10/15 06:56:27;;;;;;;6.85;4.38;;;;;;;18.78;52.83;99267.03;6317504;22;19999;-81
2023/10/15 06:58:53;;;;;;;5.07;3.65;;;;;;;19.10;51.98;99260.84;6305607;22;19995;-83
2023/10/15 07:01:18;;;;;;;10.73;5.15;;;;;;;19.22;52.80;99275.34;6304148;22;20007;-83
2023/10/15 07:03:44;;;;;;;6.95;4.60;;;;;;;19.18;52.10;99252.41;6304350;22;20007;-82
2023/10/15 07:06:11;;;;;;;5.55;3.83;;;;;;;19.56;50.85;99209.19;6304622;22;20003;-81
2023/10/15 07:08:36;;;;;;;8.35;4.45;;;;;;;20.05;50.21;99259.78;6303865;22;20003;-80
2023/10/15 07:11:05;;;;;;;17.70;3.85;;;;;;;20.38;49.57;99262.16;6304621;22;20396;-82
2023/10/15 07:13:30;;;;;;;10.10;4.65;;;;;;;20.39;49.60;99236.25;6304313;22;20007;-83
2023/10/15 07:15:56;;;;;;;13.55;5.13;;;;;;;20.54;49.22;99239.75;6303746;22;20083;-78
2023/10/15 07:18:21;;;;;;;8.35;3.47;;;;;;;20.88;48.39;99268.00;6302204;22;20005;-80
2023/10/15 07:20:47;;;;;;;12.40;4.72;;;;;;;20.56;48.36;99198.53;6302471;22;20062;-82
2023/10/15 07:23:12;;;;;;;8.52;4.63;;;;;;;20.64;48.27;99191.84;6302603;22;20031;-81
2023/10/15 07:25:38;;;;;;;9.80;4.93;;;;;;;20.87;48.04;99242.16;6301743;22;20025;-83
2023/10/15 07:28:04;;;;;;;8.55;4.82;;;;;;;20.88;49.08;99243.88;6302294;22;20010;-82
2023/10/15 07:30:30;;;;;;;7.40;4.20;;;;;;;20.83;47.46;99176.28;6301924;22;20086;-83
2023/10/15 07:33:02;;;;;;;12.68;4.57;;;;;;;20.70;48.86;99191.47;6304139;22;20009;-86
2023/10/15 07:35:35;;;;;;;10.15;4.97;;;;;;;20.88;48.90;99184.03;6275659;22;20023;-90
2023/10/15 07:38:05;;;;;;;11.00;4.72;;;;;;;21.45;46.83;99204.38;6302622;22;20007;-87
2023/10/15 07:40:34;;;;;;;10.63;4.50;;;;;;;21.14;47.25;99224.34;6302101;22;19999;-82
2023/10/15 07:43:00;;;;;;;11.38;6.43;;;;;;;21.73;46.34;99211.41;6302430;22;20018;-82
2023/10/15 07:45:30;;;;;;;18.05;5.10;;;;;;;21.99;45.72;99179.22;6302210;22;20094;-85
2023/10/15 07:48:01;;;;;;;14.20;4.75;;;;;;;22.36;45.28;99241.09;6276100;22;20438;-85
2023/10/15 07:50:34;;;;;;;16.80;8.43;;;;;;;22.32;45.46;99199.28;6303235;22;20361;-86
2023/10/15 07:52:59;;;;;;;16.17;8.40;;;;;;;22.44;43.53;99198.41;6303170;22;19999;-84
2023/10/15 07:55:26;;;;;;;21.27;10.45;;;;;;;22.27;43.60;99179.94;6302136;22;20000;-85
2023/10/15 07:57:52;;;;;;;12.20;7.10;;;;;;;22.51;43.32;99199.69;6303334;22;20346;-82
2023/10/15 08:00:26;;;;;;;21.08;6.10;;;;;;;22.15;44.28;99195.09;6302940;22;20000;-83
2023/10/15 08:02:58;;;;;;;11.82;4.80;;;;;;;22.75;43.66;99227.59;6303516;22;20050;-85
2023/10/15 08:05:24;;;;;;;14.82;6.03;;;;;;;22.71;42.79;99197.41;6302041;22;20039;-85
2023/10/15 08:07:51;;;;;;;15.05;5.88;;;;;;;22.30;45.68;99185.09;6302910;22;20003;-84
2023/10/15 08:10:20;;;;;;;8.48;4.90;;;;;;;22.89;41.74;99162.91;6302671;22;20327;-84
2023/10/15 08:12:48;;;;;;;13.07;5.63;;;;;;;23.05;41.08;99197.59;6303631;22;20011;-84
2023/10/15 08:15:14;;;;;;;21.75;5.70;;;;;;;22.91;41.28;99178.91;6303994;22;20092;-84
2023/10/15 08:17:40;;;;;;;11.98;4.35;;;;;;;22.77;41.26;99169.19;6302233;22;20031;-84
2023/10/15 08:20:09;;;;;;;12.85;4.47;;;;;;;22.87;42.58;99173.78;6299678;22;20404;-85
2023/10/15 08:22:35;;;;;;;10.25;6.68;;;;;;;22.82;41.31;99158.97;6302514;22;20014;-84
2023/10/15 08:25:01;;;;;;;13.38;6.78;;;;;;;22.97;42.90;99187.41;6302758;22;20015;-84
2023/10/15 08:27:26;;;;;;;10.68;6.70;;;;;;;22.68;40.87;99123.22;6302455;22;20482;-83
2023/10/15 08:29:52;;;;;;;9.23;4.85;;;;;;;22.67;41.14;99140.28;6303230;22;20056;-82
2023/10/15 08:32:17;;;;;;;9.10;5.60;;;;;;;23.16;40.54;99169.94;6303479;22;20064;-84
2023/10/15 08:34:44;;;;;;;12.30;4.25;;;;;;;23.07;40.32;99166.06;6303795;22;20011;-83
2023/10/15 08:37:10;;;;;;;6.82;3.55;;;;;;;22.75;40.94;99138.88;6302697;22;20010;-85
2023/10/15 08:39:39;;;;;;;9.55;4.38;;;;;;;22.92;39.61;99140.31;6302940;22;20003;-83
2023/10/15 08:42:20;;;;;;;10.93;4.80;;;;;;;23.11;39.30;99131.72;6275791;22;20003;-83
2023/10/15 08:44:49;;;;;;;5.07;3.40;;;;;;;23.10;38.98;99122.81;6303615;22;20442;-82
2023/10/15 08:47:16;;;;;;;9.05;4.10;;;;;;;23.00;39.78;99097.56;6276126;22;20006;-81
2023/10/15 08:49:51;;;;;;;9.77;5.47;;;;;;;23.46;39.42;99152.41;6302585;22;19999;-80
2023/10/15 08:52:18;;;;;;;12.07;6.05;;;;;;;23.53;39.54;99161.72;6268573;22;20060;-82
2023/10/15 08:54:45;;;;;;;15.32;5.43;;;;;;;23.16;39.15;99089.22;6297604;22;20011;-80
2023/10/15 08:57:11;;;;;;;8.10;4.82;;;;;;;22.97;39.76;99089.72;6301586;22;20087;-83
2023/10/15 08:59:36;;;;;;;11.93;4.57;;;;;;;23.32;39.06;99107.72;6301083;22;20096;-82
2023/10/15 09:02:06;;;;;;;17.77;6.32;;;;;;;23.14;39.09;99102.78;6302273;22;20009;-81
2023/10/15 09:04:32;;;;;;;11.45;3.58;;;;;;;23.14;38.95;99127.00;6300393;22;20011;-82
2023/10/15 09:07:01;;;;;;;7.07;3.28;;;;;;;23.22;39.24;99123.72;6301057;22;20064;-84
2023/10/15 09:09:33;;;;;;;10.65;4.22;;;;;;;23.16;38.72;99073.09;6299755;22;20007;-85
2023/10/15 09:12:01;;;;;;;9.05;4.43;;;;;;;23.82;39.06;99148.69;6296618;22;20396;-85
2023/10/15 09:14:56;;;;;;;7.38;3.70;;;;;;;24.11;37.84;99138.31;6302691;22;20003;-83
2023/10/15 09:17:24;;;;;;;11.57;3.80;;;;;;;23.70;37.91;99050.88;6205610;23;20035;-82
2023/10/15 09:19:49;;;;;;;7.55;3.65;;;;;;;23.66;37.64;99046.72;6204671;23;20020;-82
2023/10/15 09:22:15;;;;;;;5.35;3.22;;;;;;;24.00;37.96;99089.81;6204030;23;20348;-82
2023/10/15 09:24:45;;;;;;;9.10;3.60;;;;;;;24.04;38.34;99069.75;6204841;23;20008;-81
2023/10/15 09:27:13;;;;;;;8.50;4.15;;;;;;;24.23;37.29;99081.72;6205026;23;20102;-82
2023/10/15 09:29:40;;;;;;;7.55;3.38;;;;;;;24.11;36.95;99051.25;6205277;23;20110;-82
2023/10/15 09:32:06;;;;;;;6.03;3.30;;;;;;;24.22;36.83;99080.88;6205316;23;20010;-82
2023/10/15 09:34:33;;;;;;;8.85;3.30;;;;;;;24.23;36.75;99033.22;6204934;23;20108;-83
2023/10/15 09:36:59;;;;;;;6.78;3.40;;;;;;;24.64;35.94;99075.66;6205449;23;20005;-82
2023/10/15 09:39:28;;;;;;;10.43;3.78;;;;;;;24.43;36.62;99018.09;6205116;23;20012;-83
2023/10/15 09:41:56;;;;;;;15.95;4.13;;;;;;;24.80;36.06;99045.53;6205765;23;20099;-84
2023/10/15 09:44:23;;;;;;;5.60;3.75;;;;;;;24.65;36.41;99018.06;6201700;23;20040;-83
2023/10/15 09:46:48;;;;;;;15.82;5.40;;;;;;;24.64;36.66;99002.84;6205257;23;20127;-81
2023/10/15 09:49:15;;;;;;;8.00;4.47;;;;;;;24.98;36.70;99012.63;6182496;23;20543;-82
2023/10/15 09:51:42;;;;;;;20.27;6.50;;;;;;;25.17;35.93;99042.41;6207979;23;20015;-83
2023/10/15 09:54:11;;;;;;;10.55;5.95;;;;;;;25.17;35.73;99012.72;6257897;22;20014;-86
2023/10/15 09:56:41;;;;;;;10.90;4.88;;;;;;;25.22;35.54;99030.38;6300706;22;20053;-85
2023/10/15 09:59:08;;;;;;;12.10;4.43;;;;;;;25.17;35.78;98983.03;6302539;22;20053;-84
2023/10/15 10:01:38;;;;;;;5.35;3.25;;;;;;;25.32;35.71;99015.13;6303509;22;19995;-84
2023/10/15 10:04:14;;;;;;;7.95;3.90;;;;;;;25.54;36.14;99068.09;6303442;22;20070;-84
2023/10/15 10:06:48;;;;;;;10.43;4.40;;;;;;;25.61;36.15;99046.81;6302290;22;20060;-85
2023/10/15 10:09:42;;;;;;;9.00;4.97;;;;;;;25.47;35.64;99069.59;6302515;22;20011;-83
2023/10/15 10:12:23;;;;;;;4.65;2.60;;;;;;;24.87;36.10;98950.63;6302824;22;20010;-83
2023/10/15 10:15:22;;;;;;;8.45;3.83;;;;;;;25.25;36.41;99020.16;6301050;22;20056;-83
2023/10/15 10:17:49;;;;;;;5.00;2.70;;;;;;;25.22;36.39;98995.28;6302792;22;20007;-85
2023/10/15 10:20:15;;;;;;;7.35;2.72;;;;;;;25.58;36.30;99007.44;6302074;22;20007;-85
2023/10/15 10:22:44;;;;;;;9.23;3.65;;;;;;;25.38;35.68;99020.00;6274720;22;20098;-84
2023/10/15 10:25:35;;;;;;;11.50;3.72;;;;;;;25.30;36.53;99000.88;6304022;22;20430;-84
2023/10/15 10:28:11;;;;;;;14.38;5.18;;;;;;;25.82;36.46;99028.69;6302908;22;20096;-83
2023/10/15 10:30:38;;;;;;;9.32;5.97;;;;;;;25.27;36.37;98969.63;6302898;22;20064;-84
2023/10/15 10:33:04;;;;;;;8.98;3.50;;;;;;;25.38;36.15;98993.00;6303401;22;20003;-86
2023/10/15 10:35:43;;;;;;;9.27;3.38;;;;;;;25.36;36.71;98949.94;6303984;22;20018;-83
2023/10/15 10:38:16;;;;;;;8.00;3.40;;;;;;;25.59;36.20;98954.28;6303366;22;20056;-83
2023/10/15 10:41:03;;;;;;;5.63;2.88;;;;;;;26.00;35.85;98982.16;6303525;22;20342;-84
2023/10/15 10:43:29;;;;;;;10.45;3.08;;;;;;;25.61;36.27;98961.25;6302275;22;20084;-81
2023/10/15 10:46:02;;;;;;;6.10;3.17;;;;;;;25.61;36.96;98928.00;6303591;22;20389;-84
2023/10/15 10:48:38;;;;;;;6.15;2.95;;;;;;;25.65;36.82;98930.28;6301567;22;20003;-84
2023/10/15 10:51:15;;;;;;;4.82;2.72;;;;;;;26.17;36.58;99011.19;6302913;22;20007;-84
2023/10/15 10:53:57;;;;;;;5.57;3.33;;;;;;;26.21;35.70;98995.53;6302781;22;20003;-81
2023/10/15 10:56:25;;;;;;;5.03;2.97;;;;;;;25.94;35.45;98936.75;6301808;22;20866;-84
2023/10/15 10:58:57;;;;;;;5.65;3.40;;;;;;;25.91;35.72;98946.81;6301784;22;20014;-81
2023/10/15 11:01:23;;;;;;;6.55;3.50;;;;;;;25.94;34.81;98939.47;6302541;22;19999;-82
2023/10/15 11:03:52;;;;;;;4.55;2.90;;;;;;;26.03;35.02;98935.94;6301583;22;20345;-80
2023/10/15 11:06:18;;;;;;;7.55;4.15;;;;;;;26.04;34.74;98913.31;6274312;22;20065;-82
2023/10/15 11:08:47;;;;;;;13.80;8.13;;;;;;;26.08;35.73;98923.69;6301043;22;20396;-82
2023/10/15 11:11:13;;;;;;;9.43;4.53;;;;;;;26.07;34.88;98918.44;6302004;22;20011;-86
2023/10/15 11:13:38;;;;;;;19.20;4.93;;;;;;;26.43;34.53;98941.22;6276615;22;20039;-83
2023/10/15 11:16:04;;;;;;;6.03;4.28;;;;;;;26.68;33.99;98936.25;6303035;22;20442;-83
2023/10/15 11:18:34;;;;;;;15.27;4.85;;;;;;;26.46;34.17;98921.13;6303516;22;20353;-84
2023/10/15 11:21:00;;;;;;;14.95;8.50;;;;;;;26.57;34.30;98906.59;6276030;22;20018;-82
2023/10/15 11:23:26;;;;;;;11.90;5.05;;;;;;;26.68;34.27;98925.44;6303239;22;20090;-83
2023/10/15 11:25:56;;;;;;;15.38;4.30;;;;;;;26.68;33.77;98927.25;6304319;22;20418;-83
2023/10/15 11:28:24;;;;;;;9.75;2.97;;;;;;;26.61;33.80;98879.13;6303781;22;20007;-83
2023/10/15 11:30:50;;;;;;;8.00;5.60;;;;;;;26.74;32.92;98886.13;6303011;22;20006;-83
2023/10/15 11:33:17;;;;;;;6.57;3.88;;;;;;;27.01;32.87;98895.31;6302531;22;20014;-83
2023/10/15 11:35:45;;;;;;;8.55;2.67;;;;;;;26.77;33.17;98864.19;6303643;22;20020;-82
2023/10/15 11:38:11;;;;;;;9.70;5.80;;;;;;;26.66;33.20;98856.25;6303628;22;20006;-82
2023/10/15 11:40:38;;;;;;;9.02;3.60;;;;;;;26.68;33.91;98871.34;6303333;22;20003;-84
2023/10/15 11:43:12;;;;;;;23.98;3.22;;;;;;;26.89;31.64;98852.19;6301888;22;20060;-83
2023/10/15 11:45:39;;;;;;;7.15;3.40;;;;;;;26.74;32.71;98869.88;6277010;22;20349;-82
2023/10/15 11:48:11;;;;;;;10.65;4.60;;;;;;;27.13;32.34;98894.13;6302394;22;20007;-83
2023/10/15 11:50:41;;;;;;;7.05;4.47;;;;;;;27.21;32.33;98877.97;6303222;22;20074;-83
2023/10/15 11:53:19;;;;;;;9.43;3.92;;;;;;;27.19;31.71;98888.13;6302683;22;20011;-85
2023/10/15 11:55:47;;;;;;;4.22;2.60;;;;;;;27.17;32.62;98881.97;6302301;22;20084;-85
2023/10/15 11:58:19;;;;;;;7.35;2.60;;;;;;;27.14;32.57;98863.34;6303527;22;20426;-84
2023/10/15 12:00:48;;;;;;;4.80;3.25;;;;;;;27.37;33.23;98909.84;6303591;22;20026;-83
2023/10/15 12:03:16;;;;;;;3.20;2.10;;;;;;;27.04;32.56;98841.75;6301775;22;20121;-82